Overview Statistics Trail Chart Weather Telemetry Raw packets
 

This is the latest recevied weather packets stored in our database for station/object KD7AWQ. If no packets are shown the sender has not sent any weather packets the latest 10 day(s).

<< 38 39 40 41 42 43 44 >>
Time Temp. Humidity Pressure Rain* Wind** Luminosity Snow
1788171287 21.11° C 63% 1188 hPa 0 mm - 0 W/m² -
1788170983 21.11° C 69% 1187.9 hPa 0 mm - 0 W/m² -
1788170679 20° C 75% 1187.7 hPa 0 mm - 0 W/m² -
1788170374 20.56° C 72% 1187.5 hPa 0 mm - 0 W/m² -
1788170073 20.56° C 71% 1187.4 hPa 0 mm - 0 W/m² -
1788169768 20° C 73% 1187.3 hPa 1.27 mm - 0 W/m² -
1788169464 20° C 77% 1187 hPa 3.05 mm - 0 W/m² -
1788169154 20° C 74% 1186.2 hPa 13.72 mm - 0 W/m² -
1788168849 20.56° C 71% 1187 hPa 18.03 mm - 0 W/m² -
1788168546 21.11° C 65% 1187 hPa 7.87 mm - 0 W/m² -
1788168241 22.78° C 63% 1186.7 hPa 3.05 mm - 0 W/m² -
1788167936 25° C 47% 1186.6 hPa 1.27 mm - 0 W/m² -
1788167632 25° C 43% 1186.7 hPa 0 mm - 0 W/m² -
1788167326 25.56° C 50% 1186.7 hPa 0 mm - 0 W/m² -
1788167023 25.56° C 49% 1187 hPa 0 mm - 0 W/m² -
1788166719 25.56° C 48% 1186.4 hPa 0 mm - 0 W/m² -
1788166413 25.56° C 48% 1186.9 hPa 0 mm - 0 W/m² -
1788166107 26.11° C 48% 1186.9 hPa 0 mm - 0 W/m² -
1788165804 26.11° C 48% 1186.6 hPa 0 mm - 0 W/m² -
1788165500 26.11° C 46% 1186.5 hPa 0 mm - 0 W/m² -
1788165195 26.67° C 46% 1186.6 hPa 0 mm - 0 W/m² -
1788164894 26.67° C 45% 1186.6 hPa 0 mm - 0 W/m² -
1788164588 27.22° C 43% 1186.2 hPa 0 mm - 0 W/m² -
1788164284 27.22° C 44% 1186.2 hPa 0 mm - 0 W/m² -
1788163980 26.67° C 44% 1186.1 hPa 0 mm - 0 W/m² -

* Rain latest hour (hover to see other rain measurements)
** Current wind speed in m/s (hover to see current wind gust speed)